createdAt,value
2019-02-25T00:01:47.243Z,71.90
2019-02-25T00:04:16.997Z,72.60
2019-02-25T00:06:46.701Z,72.80
2019-02-25T00:09:16.719Z,73.00
2019-02-25T00:11:46.654Z,72.50
2019-02-25T00:14:16.753Z,72.00
2019-02-25T00:16:46.371Z,71.40
2019-02-25T00:19:15.996Z,73.70
2019-02-25T00:21:46.012Z,73.60
2019-02-25T00:24:16.686Z,72.50
2019-02-25T00:26:46.560Z,72.80
2019-02-25T00:29:16.168Z,72.60
2019-02-25T00:31:45.788Z,72.10
2019-02-25T00:34:15.452Z,73.00
2019-02-25T00:36:45.360Z,73.50
2019-02-25T00:39:14.989Z,74.70
2019-02-25T00:41:44.620Z,74.80
2019-02-25T00:44:14.253Z,73.10
2019-02-25T00:46:44.116Z,73.40
2019-02-25T00:49:13.813Z,73.60
2019-02-25T00:51:43.745Z,72.80
2019-02-25T00:54:13.500Z,73.40
2019-02-25T00:56:43.108Z,73.40
2019-02-25T00:59:12.962Z,73.80
2019-02-25T01:01:42.583Z,73.70
2019-02-25T01:04:12.500Z,75.20
2019-02-25T01:06:42.212Z,75.50
2019-02-25T01:09:11.926Z,74.50
2019-02-25T01:11:41.819Z,75.50
2019-02-25T01:14:11.444Z,75.80
2019-02-25T01:16:41.060Z,76.40
2019-02-25T01:19:12.140Z,74.50
2019-02-25T01:21:41.751Z,74.00
2019-02-25T01:24:11.384Z,75.10
2019-02-25T01:26:41.089Z,74.80
2019-02-25T01:29:10.719Z,73.30
2019-02-25T01:31:40.439Z,75.30
2019-02-25T01:34:10.057Z,76.00
2019-02-25T01:36:39.974Z,76.80
2019-02-25T01:39:09.641Z,77.50
2019-02-25T01:41:39.420Z,76.40
2019-02-25T01:44:09.093Z,74.80
2019-02-25T01:46:38.710Z,74.20
2019-02-25T01:49:08.946Z,76.40
2019-02-25T01:51:38.556Z,76.60
2019-02-25T01:54:08.265Z,76.20
2019-02-25T01:56:38.374Z,75.40
2019-02-25T01:59:07.997Z,76.40
2019-02-25T02:01:37.623Z,78.20
2019-02-25T02:04:07.355Z,77.00
2019-02-25T02:06:37.243Z,75.60
2019-02-25T02:09:08.696Z,75.30
2019-02-25T02:11:39.188Z,75.20
2019-02-25T02:14:09.071Z,74.20
2019-02-25T02:16:38.688Z,74.00
2019-02-25T02:19:08.318Z,74.20
2019-02-25T02:21:38.222Z,74.50
2019-02-25T02:24:07.981Z,74.80
2019-02-25T02:26:37.663Z,74.70
2019-02-25T02:29:07.594Z,75.90
2019-02-25T02:31:37.204Z,76.40
2019-02-25T02:34:08.229Z,75.90
2019-02-25T02:36:39.124Z,75.60
2019-02-25T02:39:08.737Z,76.00
2019-02-25T02:42:16.296Z,76.10
2019-02-25T02:44:51.549Z,75.10
2019-02-25T02:47:36.840Z,74.40
2019-02-25T02:50:09.352Z,74.30
2019-02-25T02:52:39.085Z,74.30
2019-02-25T02:55:09.236Z,75.20
2019-02-25T02:57:39.118Z,74.80
2019-02-25T03:00:12.738Z,74.30
2019-02-25T03:02:42.435Z,73.60
2019-02-25T03:05:13.741Z,75.10
2019-02-25T03:07:43.678Z,75.30
2019-02-25T03:10:15.241Z,76.00
2019-02-25T03:12:45.348Z,75.30
2019-02-25T03:15:24.216Z,74.80
2019-02-25T03:17:53.992Z,74.80
2019-02-25T03:20:24.058Z,75.90
2019-02-25T03:22:53.688Z,74.70
2019-02-25T03:25:23.293Z,74.30
2019-02-25T03:27:52.934Z,74.60
2019-02-25T03:30:22.761Z,75.10
2019-02-25T03:32:52.705Z,75.30
2019-02-25T03:35:22.635Z,75.70
2019-02-25T03:37:52.487Z,75.40
2019-02-25T03:40:22.494Z,75.40
2019-02-25T03:42:52.160Z,74.50
2019-02-25T03:45:22.071Z,74.80
2019-02-25T03:47:51.778Z,74.40
2019-02-25T03:50:21.627Z,74.00
2019-02-25T03:52:51.253Z,75.70
2019-02-25T03:55:21.480Z,74.80
2019-02-25T03:57:51.661Z,73.60
2019-02-25T04:00:22.102Z,74.00
2019-02-25T04:02:51.809Z,76.00
2019-02-25T04:05:21.637Z,76.50
2019-02-25T04:07:51.266Z,76.30
2019-02-25T04:10:21.444Z,74.70
2019-02-25T04:12:52.354Z,73.90
2019-02-25T04:15:24.908Z,75.20
2019-02-25T04:17:54.555Z,75.10
2019-02-25T04:20:24.169Z,76.00
2019-02-25T04:22:53.805Z,74.10
2019-02-25T04:25:23.704Z,75.20
2019-02-25T04:27:53.549Z,75.30
2019-02-25T04:30:23.244Z,75.00
2019-02-25T04:32:53.372Z,75.20
2019-02-25T04:35:23.060Z,75.40
2019-02-25T04:37:52.764Z,76.00
2019-02-25T04:40:22.474Z,74.90
2019-02-25T04:42:52.419Z,74.70
2019-02-25T04:45:22.231Z,74.50
2019-02-25T04:47:52.712Z,74.60
2019-02-25T04:50:22.356Z,75.10
2019-02-25T04:52:52.060Z,75.30
2019-02-25T04:55:21.698Z,75.10
2019-02-25T04:57:51.919Z,76.30
2019-02-25T05:00:21.726Z,77.30
2019-02-25T05:02:51.416Z,76.10
2019-02-25T05:05:21.165Z,75.40
2019-02-25T05:07:51.061Z,74.80
2019-02-25T05:10:20.672Z,75.70
2019-02-25T05:12:58.589Z,75.80
2019-02-25T05:15:28.756Z,77.00
2019-02-25T05:17:58.702Z,77.10
2019-02-25T05:20:28.456Z,76.50
2019-02-25T05:22:58.118Z,76.00
2019-02-25T05:25:27.970Z,75.60
2019-02-25T05:27:57.669Z,75.70
2019-02-25T05:30:27.760Z,76.00
2019-02-25T05:32:57.399Z,76.80
2019-02-25T05:35:27.122Z,76.80
2019-02-25T05:37:56.878Z,76.90
2019-02-25T05:40:26.500Z,75.80
2019-02-25T05:42:56.450Z,76.80
2019-02-25T05:45:26.174Z,76.90
2019-02-25T05:47:55.789Z,77.20
2019-02-25T05:50:25.660Z,77.10
2019-02-25T05:52:55.279Z,77.50
2019-02-25T05:55:24.924Z,76.90
2019-02-25T05:57:54.778Z,75.50
2019-02-25T06:00:25.898Z,76.00
2019-02-25T06:02:55.596Z,77.00
2019-02-25T06:05:25.390Z,76.60
2019-02-25T06:07:55.013Z,75.70
2019-02-25T06:10:24.634Z,75.30
2019-02-25T06:12:54.486Z,76.00
2019-02-25T06:15:24.233Z,77.50
2019-02-25T06:17:54.360Z,77.00
2019-02-25T06:20:24.114Z,77.90
2019-02-25T06:22:53.770Z,78.40
2019-02-25T06:25:23.417Z,77.10
2019-02-25T06:27:53.124Z,76.30
2019-02-25T06:30:22.892Z,76.80
2019-02-25T06:32:52.697Z,76.50
2019-02-25T06:35:22.739Z,75.70
2019-02-25T06:37:52.473Z,77.10
2019-02-25T06:40:22.245Z,76.20
2019-02-25T06:42:51.860Z,77.60
2019-02-25T06:45:21.593Z,77.20
2019-02-25T06:47:51.289Z,78.00
2019-02-25T06:50:21.146Z,77.70
2019-02-25T06:52:50.897Z,77.60
2019-02-25T06:55:20.534Z,77.50
2019-02-25T06:57:50.144Z,77.80
2019-02-25T07:00:19.777Z,77.80
2019-02-25T07:02:49.416Z,77.90
2019-02-25T07:05:34.524Z,78.20
2019-02-25T07:08:29.498Z,78.00
2019-02-25T07:11:20.354Z,77.60
2019-02-25T07:14:09.303Z,78.20
2019-02-25T07:16:52.336Z,78.80
2019-02-25T07:19:53.451Z,85.20
2019-02-25T07:22:32.494Z,83.00
2019-02-25T07:25:21.437Z,77.20
2019-02-25T07:28:09.365Z,75.50
2019-02-25T07:30:45.813Z,75.60
2019-02-25T07:33:34.526Z,77.00
2019-02-25T07:36:11.752Z,76.50
2019-02-25T07:38:51.622Z,76.70
2019-02-25T07:41:55.464Z,76.80
2019-02-25T07:44:42.847Z,77.10
2019-02-25T07:47:29.664Z,77.40
2019-02-25T07:50:12.169Z,78.40
2019-02-25T07:52:59.709Z,78.10
2019-02-25T07:56:02.171Z,79.00
2019-02-25T07:58:38.216Z,78.50
2019-02-25T08:01:14.760Z,79.70
2019-02-25T08:03:57.156Z,79.90
2019-02-25T08:06:32.880Z,80.60
2019-02-25T08:09:30.745Z,80.10
2019-02-25T08:12:11.176Z,77.70
2019-02-25T08:14:54.733Z,77.00
2019-02-25T08:17:33.810Z,77.10
2019-02-25T08:20:27.906Z,77.50
2019-02-25T08:23:04.288Z,77.60
2019-02-25T08:25:56.245Z,77.30
2019-02-25T08:28:36.553Z,77.50
2019-02-25T08:31:34.697Z,78.00
2019-02-25T08:34:18.986Z,77.80
2019-02-25T08:37:39.201Z,76.30
2019-02-25T08:40:56.242Z,74.60
2019-02-25T08:43:41.817Z,74.70
2019-02-25T08:46:40.007Z,74.50
2019-02-25T08:49:13.177Z,75.70
2019-02-25T08:51:42.977Z,73.50
2019-02-25T08:54:12.598Z,73.80
2019-02-25T08:56:42.844Z,73.20
2019-02-25T08:59:12.554Z,74.00
2019-02-25T09:01:42.385Z,73.00
2019-02-25T09:04:12.016Z,72.70
2019-02-25T09:06:41.644Z,72.50
2019-02-25T09:09:11.260Z,72.50
2019-02-25T09:11:41.019Z,72.70
2019-02-25T09:14:10.914Z,72.50
2019-02-25T09:16:40.798Z,71.90
2019-02-25T09:19:11.808Z,70.70
2019-02-25T09:21:41.505Z,70.10
2019-02-25T09:24:11.134Z,71.20
2019-02-25T09:26:40.799Z,70.60
2019-02-25T09:29:10.506Z,71.20
2019-02-25T09:31:40.129Z,69.90
2019-02-25T09:34:11.737Z,69.20
2019-02-25T09:36:41.652Z,69.60
2019-02-25T09:39:12.649Z,70.60
2019-02-25T09:41:42.276Z,70.40
2019-02-25T09:44:12.189Z,69.60
2019-02-25T09:46:41.837Z,69.40
2019-02-25T09:49:11.440Z,68.80
2019-02-25T09:51:41.070Z,68.70
2019-02-25T09:54:10.688Z,68.30
2019-02-25T09:56:40.394Z,68.60
2019-02-25T09:59:10.003Z,70.10
2019-02-25T10:01:39.941Z,68.90
2019-02-25T10:04:09.569Z,68.50
2019-02-25T10:06:39.247Z,67.90
2019-02-25T10:09:09.209Z,68.60
2019-02-25T10:11:38.832Z,66.40
2019-02-25T10:14:08.534Z,66.40
2019-02-25T10:16:39.411Z,65.60
2019-02-25T10:19:09.030Z,67.10
2019-02-25T10:21:38.652Z,64.20
2019-02-25T10:24:08.573Z,65.10
2019-02-25T10:26:38.289Z,65.30
2019-02-25T10:29:07.970Z,62.40
2019-02-25T10:31:39.579Z,62.90
2019-02-25T10:34:09.238Z,62.10
2019-02-25T10:36:38.863Z,62.10
2019-02-25T10:39:13.097Z,59.00
2019-02-25T10:41:42.986Z,62.40
2019-02-25T10:44:12.689Z,60.40
2019-02-25T10:46:43.279Z,59.60
2019-02-25T10:49:14.194Z,60.40
2019-02-25T10:51:45.519Z,56.70
2019-02-25T10:54:16.926Z,56.50
2019-02-25T10:57:02.768Z,58.80
2019-02-25T10:59:34.569Z,59.70
2019-02-25T11:02:04.729Z,60.70
2019-02-25T11:04:34.442Z,60.40
2019-02-25T11:07:05.660Z,59.20
2019-02-25T11:09:46.019Z,58.40
2019-02-25T11:12:15.954Z,57.70
2019-02-25T11:14:45.600Z,57.50
2019-02-25T11:17:16.168Z,60.20
2019-02-25T11:19:46.633Z,57.80
2019-02-25T11:22:16.473Z,59.00
2019-02-25T11:24:49.307Z,58.80
2019-02-25T11:27:19.556Z,57.60
2019-02-25T11:29:49.254Z,58.70
2019-02-25T11:32:19.869Z,58.40
2019-02-25T11:34:51.092Z,58.60
2019-02-25T11:37:22.501Z,58.00
2019-02-25T11:39:53.031Z,58.40
2019-02-25T11:42:23.608Z,54.50
2019-02-25T11:44:54.191Z,52.40
2019-02-25T11:47:24.891Z,51.70
2019-02-25T11:49:54.756Z,52.40
2019-02-25T11:52:24.476Z,51.80
2019-02-25T11:54:54.107Z,51.60
2019-02-25T11:57:23.868Z,48.70
2019-02-25T11:59:53.493Z,51.20
2019-02-25T12:02:25.930Z,51.60
2019-02-25T12:04:54.531Z,50.50
2019-02-25T12:07:24.157Z,48.70
2019-02-25T12:09:53.786Z,47.10
2019-02-25T12:12:23.409Z,50.70
2019-02-25T12:14:53.041Z,49.40
2019-02-25T12:17:22.770Z,49.30
2019-02-25T12:19:52.777Z,49.00
2019-02-25T12:22:22.401Z,48.90
2019-02-25T12:24:52.443Z,48.80
2019-02-25T12:27:22.564Z,49.70
2019-02-25T12:29:52.282Z,51.40
2019-02-25T12:32:22.132Z,51.10
2019-02-25T12:34:51.921Z,50.90
2019-02-25T12:37:21.628Z,49.20
2019-02-25T12:39:51.345Z,50.40
2019-02-25T12:42:21.030Z,49.40
2019-02-25T12:44:50.660Z,48.30
2019-02-25T12:47:20.367Z,48.50
2019-02-25T12:49:49.994Z,49.40
2019-02-25T12:52:19.936Z,48.70
2019-02-25T12:54:49.564Z,49.10
2019-02-25T12:57:19.309Z,48.80
2019-02-25T12:59:49.521Z,50.10
2019-02-25T13:02:19.135Z,48.80
2019-02-25T13:04:48.807Z,48.70
2019-02-25T13:07:18.534Z,49.80
2019-02-25T13:09:48.170Z,49.00
2019-02-25T13:12:17.795Z,49.10
2019-02-25T13:14:47.407Z,49.60
2019-02-25T13:17:17.356Z,50.10
2019-02-25T13:19:46.990Z,49.50
2019-02-25T13:22:17.089Z,46.70
2019-02-25T13:24:47.052Z,46.00
2019-02-25T13:27:16.698Z,45.00
2019-02-25T13:29:46.562Z,45.70
2019-02-25T13:32:16.187Z,46.40
2019-02-25T13:34:46.342Z,46.50
2019-02-25T13:37:16.075Z,44.80
2019-02-25T13:39:46.040Z,45.10
2019-02-25T13:42:15.762Z,45.80
2019-02-25T13:44:45.384Z,45.90
2019-02-25T13:47:15.481Z,44.70
2019-02-25T13:49:45.247Z,44.10
2019-02-25T13:52:15.118Z,43.70
2019-02-25T13:54:44.911Z,44.20
2019-02-25T13:57:14.729Z,45.40
2019-02-25T13:59:44.660Z,46.70
2019-02-25T14:02:14.365Z,46.40
2019-02-25T14:04:44.194Z,46.90
2019-02-25T14:07:15.039Z,47.10
2019-02-25T14:09:44.734Z,46.90
2019-02-25T14:12:15.065Z,45.70
2019-02-25T14:14:45.088Z,46.30
2019-02-25T14:17:14.776Z,46.80
2019-02-25T14:19:44.508Z,47.00
2019-02-25T14:22:16.421Z,46.80
2019-02-25T14:24:46.678Z,46.80
2019-02-25T14:27:16.714Z,46.60
2019-02-25T14:29:48.714Z,47.10
2019-02-25T14:32:17.825Z,47.40
2019-02-25T14:34:47.961Z,46.70
2019-02-25T14:37:20.732Z,46.80
2019-02-25T14:39:53.751Z,46.10
2019-02-25T14:42:23.728Z,46.30
2019-02-25T14:44:54.469Z,47.00
2019-02-25T14:47:31.143Z,46.90
2019-02-25T14:49:57.172Z,46.20
2019-02-25T14:52:28.910Z,46.40
2019-02-25T14:54:58.713Z,46.60
2019-02-25T14:57:28.890Z,46.10
2019-02-25T15:00:00.327Z,46.60
2019-02-25T15:02:30.292Z,46.70
2019-02-25T15:05:00.299Z,46.60
2019-02-25T15:07:30.109Z,46.90
2019-02-25T15:10:02.082Z,46.90
2019-02-25T15:12:34.290Z,46.70
2019-02-25T15:15:06.852Z,46.30
2019-02-25T15:17:37.162Z,46.80
2019-02-25T15:20:07.345Z,45.60
2019-02-25T15:22:38.330Z,45.30
2019-02-25T15:25:09.725Z,45.30
2019-02-25T15:27:39.446Z,45.70
2019-02-25T15:30:16.688Z,45.00
2019-02-25T15:32:55.649Z,44.40
2019-02-25T15:35:18.563Z,45.00
2019-02-25T15:37:50.589Z,45.80
2019-02-25T15:40:21.088Z,45.30
2019-02-25T15:43:02.825Z,45.20
2019-02-25T15:45:35.465Z,46.00
2019-02-25T15:48:07.772Z,46.80
2019-02-25T15:50:37.577Z,46.70
2019-02-25T15:53:09.475Z,47.50
2019-02-25T15:55:40.297Z,47.10
2019-02-25T15:58:10.413Z,47.00
2019-02-25T16:00:40.425Z,47.40
2019-02-25T16:03:11.303Z,46.50
2019-02-25T16:05:41.504Z,45.80
2019-02-25T16:08:16.248Z,45.30
2019-02-25T16:10:44.072Z,45.60
2019-02-25T16:13:14.394Z,46.50
2019-02-25T16:15:44.069Z,46.60
2019-02-25T16:18:14.185Z,46.80
2019-02-25T16:20:46.283Z,47.30
2019-02-25T16:23:15.451Z,47.30
2019-02-25T16:25:46.159Z,47.50
2019-02-25T16:28:17.545Z,48.20
2019-02-25T16:30:49.169Z,48.60
2019-02-25T16:33:18.904Z,48.40
2019-02-25T16:35:48.692Z,48.50
2019-02-25T16:38:21.053Z,48.70
2019-02-25T16:40:50.270Z,48.90
2019-02-25T16:43:20.874Z,49.10
2019-02-25T16:45:51.383Z,49.40
2019-02-25T16:48:24.212Z,49.50
2019-02-25T16:50:53.394Z,49.60
2019-02-25T16:53:23.021Z,49.90
2019-02-25T16:55:52.842Z,50.10
2019-02-25T16:58:22.608Z,50.20
2019-02-25T17:00:54.388Z,50.00
2019-02-25T17:03:23.836Z,50.70
2019-02-25T17:05:53.544Z,50.80
2019-02-25T17:08:24.001Z,50.90
2019-02-25T17:10:56.064Z,51.00
2019-02-25T17:13:25.948Z,51.10
2019-02-25T17:15:57.173Z,51.50
2019-02-25T17:18:27.092Z,51.50
2019-02-25T17:20:56.730Z,51.60
2019-02-25T17:23:27.632Z,51.60
2019-02-25T17:25:57.758Z,51.80
2019-02-25T17:28:27.653Z,52.10
2019-02-25T17:30:57.424Z,52.20
2019-02-25T17:33:28.340Z,52.50
2019-02-25T17:35:58.640Z,52.60
2019-02-25T17:38:28.975Z,52.70
2019-02-25T17:40:59.249Z,52.80
2019-02-25T17:43:32.060Z,53.00
2019-02-25T17:46:05.138Z,53.20
2019-02-25T17:48:33.956Z,54.70
2019-02-25T17:51:03.945Z,55.50
2019-02-25T17:53:33.660Z,53.90
2019-02-25T17:56:03.353Z,53.90
2019-02-25T17:58:33.245Z,53.90
2019-02-25T18:01:05.621Z,54.40
2019-02-25T18:03:35.201Z,54.30
2019-02-25T18:06:05.752Z,54.40
2019-02-25T18:08:37.162Z,54.70
2019-02-25T18:11:08.305Z,55.80
2019-02-25T18:13:38.012Z,55.90
2019-02-25T18:16:08.625Z,56.40
2019-02-25T18:18:41.208Z,56.30
2019-02-25T18:21:11.248Z,56.50
2019-02-25T18:23:41.272Z,56.70
2019-02-25T18:26:12.432Z,56.80
2019-02-25T18:28:43.558Z,57.10
2019-02-25T18:31:13.635Z,57.80
2019-02-25T18:33:44.076Z,57.90
2019-02-25T18:36:15.104Z,58.20
2019-02-25T18:38:46.343Z,58.10
2019-02-25T18:41:16.207Z,58.00
2019-02-25T18:43:47.271Z,58.40
2019-02-25T18:46:19.150Z,59.10
2019-02-25T18:48:49.721Z,58.80
2019-02-25T18:51:24.087Z,58.80
2019-02-25T18:53:52.707Z,59.10
2019-02-25T18:56:23.612Z,59.70
2019-02-25T18:58:55.027Z,60.00
2019-02-25T19:01:24.701Z,59.60
2019-02-25T19:03:56.440Z,59.40
2019-02-25T19:06:26.166Z,59.40
2019-02-25T19:08:58.169Z,59.30
2019-02-25T19:11:28.244Z,60.70
2019-02-25T19:14:01.763Z,61.50
2019-02-25T19:16:30.426Z,61.90
2019-02-25T19:19:03.565Z,63.30
2019-02-25T19:21:34.161Z,61.40
2019-02-25T19:24:05.563Z,61.00
2019-02-25T19:26:35.613Z,61.40
2019-02-25T19:29:05.522Z,62.60
2019-02-25T19:31:35.486Z,63.10
2019-02-25T19:34:05.764Z,63.20
2019-02-25T19:36:36.933Z,63.70
2019-02-25T19:39:11.971Z,63.50
2019-02-25T19:41:45.067Z,63.50
2019-02-25T19:44:14.865Z,62.80
2019-02-25T19:46:45.672Z,62.70
2019-02-25T19:49:17.822Z,62.70
2019-02-25T19:51:48.393Z,62.40
2019-02-25T19:54:19.426Z,62.90
2019-02-25T19:56:51.492Z,62.90
2019-02-25T19:59:22.240Z,63.40
2019-02-25T20:01:52.038Z,64.20
2019-02-25T20:04:21.742Z,64.70
2019-02-25T20:06:53.371Z,65.60
2019-02-25T20:09:23.622Z,65.40
2019-02-25T20:11:53.436Z,64.70
2019-02-25T20:14:23.290Z,64.40
2019-02-25T20:16:55.995Z,64.70
2019-02-25T20:19:25.649Z,64.40
2019-02-25T20:21:56.835Z,65.00
2019-02-25T20:24:26.638Z,65.60
2019-02-25T20:26:59.703Z,64.60
2019-02-25T20:29:28.180Z,65.40
2019-02-25T20:31:58.345Z,64.90
2019-02-25T20:34:29.716Z,63.90
2019-02-25T20:36:59.956Z,66.30
2019-02-25T20:39:31.767Z,67.00
2019-02-25T20:42:02.280Z,66.30
2019-02-25T20:44:33.098Z,65.50
2019-02-25T20:47:04.156Z,65.90
2019-02-25T20:49:33.981Z,65.80
2019-02-25T20:52:03.696Z,66.30
2019-02-25T20:54:37.896Z,67.80
2019-02-25T20:57:05.885Z,67.60
2019-02-25T20:59:35.498Z,66.50
2019-02-25T21:02:09.718Z,67.30
2019-02-25T21:04:38.692Z,68.10
2019-02-25T21:07:08.873Z,69.90
2019-02-25T21:09:40.557Z,66.90
2019-02-25T21:12:13.207Z,66.90
2019-02-25T21:14:44.873Z,69.10
2019-02-25T21:17:14.204Z,67.40
2019-02-25T21:19:44.230Z,66.80
2019-02-25T21:22:14.180Z,66.80
2019-02-25T21:24:43.820Z,68.20
2019-02-25T21:27:13.517Z,67.40
2019-02-25T21:29:43.381Z,67.80
2019-02-25T21:32:17.079Z,68.80
2019-02-25T21:34:47.230Z,68.10
2019-02-25T21:37:18.676Z,68.00
2019-02-25T21:39:48.433Z,68.60
2019-02-25T21:42:21.787Z,68.40
2019-02-25T21:44:50.746Z,68.70
2019-02-25T21:47:23.831Z,68.40
2019-02-25T21:49:54.973Z,68.30
2019-02-25T21:52:24.504Z,67.80
2019-02-25T21:54:54.628Z,67.90
2019-02-25T21:57:24.297Z,68.30
2019-02-25T21:59:54.732Z,69.50
2019-02-25T22:02:25.389Z,70.10
2019-02-25T22:04:56.342Z,69.10
2019-02-25T22:07:27.206Z,70.10
2019-02-25T22:09:57.477Z,69.20
2019-02-25T22:12:30.877Z,69.50
2019-02-25T22:14:58.903Z,70.20
2019-02-25T22:17:28.580Z,69.50
2019-02-25T22:19:58.197Z,69.00
2019-02-25T22:22:28.846Z,70.60
2019-02-25T22:25:04.128Z,70.40
2019-02-25T22:27:30.655Z,72.10
2019-02-25T22:30:02.337Z,70.80
2019-02-25T22:32:33.695Z,70.30
2019-02-25T22:35:05.078Z,69.80
2019-02-25T22:37:35.946Z,70.10
2019-02-25T22:40:07.884Z,69.90
2019-02-25T22:42:37.359Z,70.30
2019-02-25T22:45:09.923Z,70.10
2019-02-25T22:47:40.154Z,70.80
2019-02-25T22:50:11.252Z,70.50
2019-02-25T22:52:41.886Z,71.20
2019-02-25T22:55:12.919Z,71.50
2019-02-25T22:57:43.890Z,72.40
2019-02-25T23:00:22.650Z,71.60
2019-02-25T23:02:54.608Z,72.40
2019-02-25T23:05:25.551Z,72.30
2019-02-25T23:07:55.768Z,71.80
2019-02-25T23:10:25.484Z,71.90
2019-02-25T23:12:55.196Z,72.00
2019-02-25T23:15:27.318Z,72.80
2019-02-25T23:18:04.837Z,72.70
2019-02-25T23:20:29.426Z,72.00
2019-02-25T23:23:01.218Z,71.70
2019-02-25T23:25:30.598Z,71.90
2019-02-25T23:28:02.287Z,71.90
2019-02-25T23:30:31.976Z,72.30
2019-02-25T23:33:01.595Z,72.20
2019-02-25T23:35:31.488Z,72.40
2019-02-25T23:38:01.097Z,72.50
2019-02-25T23:40:33.326Z,73.10
2019-02-25T23:43:03.313Z,73.00
2019-02-25T23:45:35.597Z,72.90
2019-02-25T23:48:06.361Z,72.10
2019-02-25T23:50:36.827Z,72.10
2019-02-25T23:53:06.785Z,71.90
2019-02-25T23:55:36.496Z,72.10
2019-02-25T23:58:10.191Z,72.00
